IGO673 VABB-VOML
Flight info
| Callsign | IGO673 |
|---|---|
| Flight time | 1h 8m |
| Altitude | 39000 |
| Route | VEVAK2A MABTA Q13 IKATI W17 MML |
| Aircraft | A20N/M-SDE2E3FGHIRWXY/LB1 |
Departure
| Time | 2026-05-04 17:08 |
|---|---|
| Airport | Chhatrapati Shivaji Maharaj International Airport (VABB) |
Arrival
| Time | 2026-05-04 18:16 |
|---|---|
| Airport | Mangaluru International Airport (VOML) |
| Time | Latitude | Longitude | Altitude | Speed | Heading |
|---|---|---|---|---|---|
| 2026-05-04 16:08 | 19.09394 | 72.86985 | 10 ft | 0 kts | 101° |
| 2026-05-04 16:31 | 19.09401 | 72.86955 | 38 ft | 2 kts | 105° |
| 2026-05-04 16:31 | 19.09421 | 72.86908 | 37 ft | 2 kts | 139° |
| 2026-05-04 16:32 | 19.09447 | 72.86909 | 39 ft | 0 kts | 223° |
| 2026-05-04 16:47 | 19.09419 | 72.86863 | 39 ft | 8 kts | 253° |
| 2026-05-04 16:48 | 19.09380 | 72.86719 | 39 ft | 7 kts | 230° |
| 2026-05-04 16:48 | 19.09346 | 72.86678 | 40 ft | 8 kts | 229° |
| 2026-05-04 16:49 | 19.09261 | 72.86627 | 40 ft | 8 kts | 159° |
| 2026-05-04 16:49 | 19.09173 | 72.86715 | 39 ft | 10 kts | 133° |
| 2026-05-04 16:50 | 19.09071 | 72.86824 | 37 ft | 8 kts | 134° |
| 2026-05-04 16:50 | 19.09045 | 72.86880 | 37 ft | 8 kts | 89° |
| 2026-05-04 16:51 | 19.09047 | 72.87065 | 37 ft | 17 kts | 89° |
| 2026-05-04 16:51 | 19.09048 | 72.87169 | 37 ft | 9 kts | 88° |
| 2026-05-04 16:51 | 19.09050 | 72.87196 | 37 ft | 0 kts | 87° |
| 2026-05-04 16:52 | 19.09051 | 72.87227 | 37 ft | 11 kts | 89° |
| 2026-05-04 16:52 | 19.09051 | 72.87328 | 37 ft | 8 kts | 90° |
| 2026-05-04 16:53 | 19.09052 | 72.87446 | 36 ft | 8 kts | 89° |
| 2026-05-04 16:53 | 19.09055 | 72.87646 | 36 ft | 0 kts | 90° |
| 2026-05-04 16:55 | 19.09055 | 72.87652 | 36 ft | 0 kts | 89° |
| 2026-05-04 16:55 | 19.09055 | 72.87653 | 36 ft | 1 kts | 89° |
| 2026-05-04 16:56 | 19.09052 | 72.87775 | 35 ft | 7 kts | 105° |
| 2026-05-04 16:56 | 19.09008 | 72.87806 | 36 ft | 0 kts | 178° |
| 2026-05-04 17:05 | 19.09007 | 72.87806 | 36 ft | 2 kts | 178° |
| 2026-05-04 17:06 | 19.08887 | 72.87789 | 36 ft | 4 kts | 244° |
| 2026-05-04 17:06 | 19.08886 | 72.87773 | 36 ft | 0 kts | 269° |
| 2026-05-04 17:07 | 19.08886 | 72.87772 | 36 ft | 3 kts | 268° |
| 2026-05-04 17:07 | 19.08884 | 72.87673 | 35 ft | 43 kts | 269° |
| 2026-05-04 17:07 | 19.08872 | 72.86801 | 39 ft | 131 kts | 269° |
| 2026-05-04 17:07 | 19.08853 | 72.85675 | 325 ft | 152 kts | 267° |
| 2026-05-04 17:08 | 19.08831 | 72.84589 | 924 ft | 152 kts | 267° |
| 2026-05-04 17:08 | 19.08823 | 72.82244 | 1914 ft | 178 kts | 266° |
| 2026-05-04 17:08 | 19.08805 | 72.80839 | 2180 ft | 203 kts | 267° |
| 2026-05-04 17:09 | 19.08781 | 72.79264 | 2456 ft | 232 kts | 267° |
| 2026-05-04 17:09 | 19.08748 | 72.77468 | 2998 ft | 251 kts | 268° |
| 2026-05-04 17:09 | 19.08698 | 72.75616 | 3839 ft | 254 kts | 265° |
| 2026-05-04 17:10 | 19.07372 | 72.72177 | 5468 ft | 265 kts | 227° |
| 2026-05-04 17:10 | 19.01867 | 72.71225 | 7841 ft | 289 kts | 175° |
| 2026-05-04 17:11 | 18.99864 | 72.71525 | 8649 ft | 293 kts | 174° |
| 2026-05-04 17:11 | 18.98515 | 72.71726 | 9184 ft | 296 kts | 174° |
| 2026-05-04 17:11 | 18.93604 | 72.72397 | 10492 ft | 326 kts | 175° |
| 2026-05-04 17:12 | 18.91304 | 72.72693 | 10971 ft | 338 kts | 175° |
| 2026-05-04 17:12 | 18.86560 | 72.73295 | 12293 ft | 347 kts | 175° |
| 2026-05-04 17:13 | 18.79229 | 72.74217 | 14270 ft | 361 kts | 174° |
| 2026-05-04 17:14 | 18.71812 | 72.76262 | 16307 ft | 372 kts | 163° |
| 2026-05-04 17:14 | 18.69341 | 72.77109 | 16999 ft | 376 kts | 163° |
| 2026-05-04 17:14 | 18.64359 | 72.78836 | 18310 ft | 383 kts | 163° |
| 2026-05-04 17:15 | 18.61806 | 72.79723 | 18897 ft | 387 kts | 163° |
| 2026-05-04 17:15 | 18.56649 | 72.81515 | 20056 ft | 393 kts | 163° |
| 2026-05-04 17:16 | 18.51404 | 72.83336 | 21180 ft | 400 kts | 163° |
| 2026-05-04 17:16 | 18.43355 | 72.86130 | 22849 ft | 411 kts | 163° |
| 2026-05-04 17:17 | 18.40659 | 72.87065 | 23382 ft | 415 kts | 163° |
| 2026-05-04 17:17 | 18.32339 | 72.89948 | 24698 ft | 424 kts | 163° |
| 2026-05-04 17:18 | 18.29513 | 72.90926 | 25130 ft | 427 kts | 163° |
| 2026-05-04 17:18 | 18.23834 | 72.92891 | 25968 ft | 433 kts | 163° |
| 2026-05-04 17:19 | 18.18095 | 72.94875 | 26767 ft | 438 kts | 163° |
| 2026-05-04 17:19 | 18.12256 | 72.96892 | 27531 ft | 444 kts | 163° |
| 2026-05-04 17:20 | 18.07367 | 72.98633 | 28141 ft | 449 kts | 162° |
| 2026-05-04 17:20 | 18.01491 | 73.00972 | 28848 ft | 454 kts | 161° |
| 2026-05-04 17:20 | 17.98532 | 73.02171 | 29208 ft | 457 kts | 161° |
| 2026-05-04 17:21 | 17.91589 | 73.04983 | 29984 ft | 462 kts | 161° |
| 2026-05-04 17:21 | 17.86568 | 73.07012 | 30452 ft | 466 kts | 161° |
| 2026-05-04 17:22 | 17.82487 | 73.08660 | 30830 ft | 469 kts | 161° |
| 2026-05-04 17:22 | 17.80477 | 73.09472 | 31034 ft | 469 kts | 161° |
| 2026-05-04 17:23 | 17.71372 | 73.13147 | 32207 ft | 466 kts | 161° |
| 2026-05-04 17:23 | 17.68340 | 73.14371 | 32589 ft | 465 kts | 161° |
| 2026-05-04 17:23 | 17.62335 | 73.16794 | 33337 ft | 464 kts | 161° |
| 2026-05-04 17:24 | 17.59327 | 73.18007 | 33707 ft | 463 kts | 161° |
| 2026-05-04 17:24 | 17.50335 | 73.21630 | 34715 ft | 459 kts | 161° |
| 2026-05-04 17:25 | 17.47349 | 73.22832 | 35038 ft | 458 kts | 161° |
| 2026-05-04 17:25 | 17.41422 | 73.25216 | 35683 ft | 455 kts | 161° |
| 2026-05-04 17:26 | 17.35550 | 73.27576 | 36280 ft | 453 kts | 161° |
| 2026-05-04 17:26 | 17.26742 | 73.31113 | 37158 ft | 450 kts | 161° |
| 2026-05-04 17:27 | 17.20904 | 73.33454 | 37732 ft | 447 kts | 161° |
| 2026-05-04 17:27 | 17.15149 | 73.35799 | 38275 ft | 445 kts | 157° |
| 2026-05-04 17:28 | 17.09774 | 73.39011 | 38753 ft | 445 kts | 148° |
| 2026-05-04 17:29 | 17.02029 | 73.44403 | 38891 ft | 444 kts | 148° |
| 2026-05-04 17:29 | 16.94247 | 73.49689 | 38896 ft | 443 kts | 149° |
| 2026-05-04 17:31 | 16.81188 | 73.58177 | 38901 ft | 442 kts | 153° |
| 2026-05-04 17:32 | 16.67550 | 73.65542 | 38911 ft | 441 kts | 154° |
| 2026-05-04 17:33 | 16.56690 | 73.71445 | 38914 ft | 441 kts | 154° |
| 2026-05-04 17:34 | 16.45860 | 73.77368 | 38921 ft | 440 kts | 154° |
| 2026-05-04 17:35 | 16.32265 | 73.84594 | 38922 ft | 439 kts | 155° |
| 2026-05-04 17:36 | 16.26758 | 73.87372 | 38920 ft | 438 kts | 155° |
| 2026-05-04 17:36 | 16.21270 | 73.90138 | 38921 ft | 438 kts | 155° |
| 2026-05-04 17:37 | 16.15783 | 73.92903 | 38920 ft | 438 kts | 155° |
| 2026-05-04 17:37 | 16.10315 | 73.95657 | 38921 ft | 438 kts | 155° |
| 2026-05-04 17:38 | 16.04831 | 73.98419 | 38923 ft | 438 kts | 155° |
| 2026-05-04 17:38 | 15.99347 | 74.01179 | 38920 ft | 438 kts | 155° |
| 2026-05-04 17:39 | 15.91130 | 74.05314 | 38923 ft | 437 kts | 155° |
| 2026-05-04 17:39 | 15.85644 | 74.08072 | 38923 ft | 437 kts | 155° |
| 2026-05-04 17:40 | 15.80191 | 74.10811 | 38925 ft | 437 kts | 155° |
| 2026-05-04 17:40 | 15.74719 | 74.13559 | 38922 ft | 436 kts | 155° |
| 2026-05-04 17:41 | 15.69281 | 74.16288 | 38922 ft | 436 kts | 155° |
| 2026-05-04 17:41 | 15.63807 | 74.19034 | 38923 ft | 436 kts | 155° |
| 2026-05-04 17:42 | 15.58342 | 74.21774 | 38922 ft | 436 kts | 155° |
| 2026-05-04 17:42 | 15.52876 | 74.24512 | 38925 ft | 435 kts | 155° |
| 2026-05-04 17:43 | 15.47419 | 74.27244 | 38921 ft | 435 kts | 155° |
| 2026-05-04 17:43 | 15.41994 | 74.29958 | 38924 ft | 435 kts | 155° |
| 2026-05-04 17:44 | 15.36535 | 74.32688 | 38923 ft | 435 kts | 155° |
| 2026-05-04 17:44 | 15.31076 | 74.35416 | 38925 ft | 436 kts | 155° |
| 2026-05-04 17:45 | 15.25637 | 74.38133 | 38923 ft | 436 kts | 155° |
| 2026-05-04 17:45 | 15.20166 | 74.40864 | 38924 ft | 436 kts | 155° |
| 2026-05-04 17:46 | 15.14708 | 74.43588 | 38923 ft | 436 kts | 155° |
| 2026-05-04 17:46 | 15.09241 | 74.46319 | 38922 ft | 436 kts | 155° |
| 2026-05-04 17:47 | 15.03798 | 74.49053 | 38926 ft | 435 kts | 155° |
| 2026-05-04 17:47 | 14.98342 | 74.51798 | 38924 ft | 435 kts | 155° |
| 2026-05-04 17:48 | 14.92887 | 74.54541 | 38923 ft | 435 kts | 155° |
| 2026-05-04 17:48 | 14.90199 | 74.55892 | 38771 ft | 435 kts | 155° |
| 2026-05-04 17:48 | 14.87473 | 74.57262 | 38540 ft | 435 kts | 155° |
| 2026-05-04 17:49 | 14.84753 | 74.58628 | 38281 ft | 436 kts | 155° |
| 2026-05-04 17:49 | 14.82018 | 74.60002 | 37986 ft | 434 kts | 155° |
| 2026-05-04 17:49 | 14.79307 | 74.61365 | 37469 ft | 433 kts | 155° |
| 2026-05-04 17:49 | 14.76600 | 74.62724 | 36860 ft | 435 kts | 155° |
| 2026-05-04 17:50 | 14.73860 | 74.64100 | 36242 ft | 437 kts | 155° |
| 2026-05-04 17:50 | 14.71111 | 74.65481 | 35585 ft | 440 kts | 155° |
| 2026-05-04 17:50 | 14.68340 | 74.66873 | 34891 ft | 444 kts | 155° |
| 2026-05-04 17:50 | 14.65582 | 74.68260 | 34174 ft | 449 kts | 155° |
| 2026-05-04 17:51 | 14.62762 | 74.69678 | 33365 ft | 453 kts | 155° |
| 2026-05-04 17:51 | 14.59924 | 74.71107 | 32574 ft | 456 kts | 155° |
| 2026-05-04 17:51 | 14.57064 | 74.72548 | 31929 ft | 455 kts | 155° |
| 2026-05-04 17:51 | 14.54237 | 74.73972 | 31409 ft | 451 kts | 155° |
| 2026-05-04 17:52 | 14.51409 | 74.75394 | 30846 ft | 449 kts | 155° |
| 2026-05-04 17:52 | 14.48521 | 74.76598 | 30237 ft | 446 kts | 168° |
| 2026-05-04 17:52 | 14.45490 | 74.77172 | 29670 ft | 442 kts | 172° |
| 2026-05-04 17:52 | 14.42464 | 74.77631 | 29081 ft | 438 kts | 173° |
| 2026-05-04 17:53 | 14.39454 | 74.78085 | 28494 ft | 435 kts | 173° |
| 2026-05-04 17:53 | 14.36480 | 74.78555 | 27932 ft | 432 kts | 172° |
| 2026-05-04 17:53 | 14.33505 | 74.79045 | 27365 ft | 429 kts | 172° |
| 2026-05-04 17:53 | 14.30602 | 74.79533 | 26800 ft | 427 kts | 172° |
| 2026-05-04 17:54 | 14.27690 | 74.80029 | 26220 ft | 425 kts | 172° |
| 2026-05-04 17:54 | 14.24769 | 74.80530 | 25654 ft | 423 kts | 172° |
| 2026-05-04 17:54 | 14.21876 | 74.81028 | 25082 ft | 421 kts | 172° |
| 2026-05-04 17:54 | 14.18978 | 74.81527 | 24510 ft | 419 kts | 171° |
| 2026-05-04 17:55 | 14.16106 | 74.82022 | 23932 ft | 418 kts | 171° |
| 2026-05-04 17:55 | 14.13241 | 74.82516 | 23318 ft | 416 kts | 171° |
| 2026-05-04 17:55 | 14.10385 | 74.83009 | 22665 ft | 414 kts | 171° |
| 2026-05-04 17:55 | 14.07564 | 74.83495 | 22095 ft | 409 kts | 171° |
| 2026-05-04 17:56 | 14.04767 | 74.83978 | 21523 ft | 405 kts | 171° |
| 2026-05-04 17:56 | 14.02043 | 74.84448 | 20964 ft | 400 kts | 171° |
| 2026-05-04 17:56 | 13.99302 | 74.84922 | 20403 ft | 396 kts | 171° |
| 2026-05-04 17:56 | 13.96599 | 74.85389 | 19840 ft | 392 kts | 170° |
| 2026-05-04 17:57 | 13.93913 | 74.85852 | 19281 ft | 389 kts | 170° |
| 2026-05-04 17:57 | 13.91263 | 74.86310 | 18725 ft | 386 kts | 170° |
| 2026-05-04 17:57 | 13.88617 | 74.86766 | 18169 ft | 382 kts | 169° |
| 2026-05-04 17:57 | 13.86029 | 74.87213 | 17565 ft | 378 kts | 169° |
| 2026-05-04 17:58 | 13.83433 | 74.87662 | 17015 ft | 373 kts | 169° |
| 2026-05-04 17:58 | 13.80896 | 74.88102 | 16478 ft | 368 kts | 169° |
| 2026-05-04 17:58 | 13.78406 | 74.88533 | 15943 ft | 364 kts | 169° |
| 2026-05-04 17:58 | 13.75924 | 74.88964 | 15416 ft | 360 kts | 169° |
| 2026-05-04 17:59 | 13.73463 | 74.89390 | 14892 ft | 357 kts | 169° |
| 2026-05-04 17:59 | 13.71019 | 74.89814 | 14375 ft | 354 kts | 169° |
| 2026-05-04 17:59 | 13.66200 | 74.90650 | 13295 ft | 348 kts | 170° |
| 2026-05-04 18:00 | 13.63826 | 74.91061 | 12795 ft | 344 kts | 170° |
| 2026-05-04 18:00 | 13.61478 | 74.91468 | 12291 ft | 340 kts | 170° |
| 2026-05-04 18:00 | 13.59190 | 74.91864 | 11805 ft | 336 kts | 170° |
| 2026-05-04 18:00 | 13.56890 | 74.92263 | 11318 ft | 332 kts | 170° |
| 2026-05-04 18:01 | 13.54625 | 74.92656 | 10836 ft | 328 kts | 171° |
| 2026-05-04 18:01 | 13.52380 | 74.93045 | 10364 ft | 324 kts | 171° |
| 2026-05-04 18:01 | 13.50196 | 74.93424 | 10191 ft | 310 kts | 171° |
| 2026-05-04 18:02 | 13.46051 | 74.94149 | 9431 ft | 300 kts | 171° |
| 2026-05-04 18:02 | 13.43988 | 74.94509 | 8928 ft | 298 kts | 171° |
| 2026-05-04 18:02 | 13.41958 | 74.94860 | 8524 ft | 294 kts | 171° |
| 2026-05-04 18:02 | 13.39978 | 74.95203 | 8138 ft | 290 kts | 171° |
| 2026-05-04 18:03 | 13.37999 | 74.95546 | 7739 ft | 288 kts | 171° |
| 2026-05-04 18:03 | 13.36027 | 74.95886 | 7351 ft | 287 kts | 171° |
| 2026-05-04 18:03 | 13.34047 | 74.96228 | 6953 ft | 287 kts | 171° |
| 2026-05-04 18:03 | 13.32090 | 74.96564 | 6553 ft | 286 kts | 170° |
| 2026-05-04 18:04 | 13.30134 | 74.96900 | 6143 ft | 285 kts | 170° |
| 2026-05-04 18:04 | 13.28202 | 74.97377 | 5761 ft | 286 kts | 162° |
| 2026-05-04 18:04 | 13.24539 | 74.98860 | 5008 ft | 280 kts | 156° |
| 2026-05-04 18:05 | 13.22779 | 74.99678 | 4627 ft | 276 kts | 154° |
| 2026-05-04 18:05 | 13.21288 | 75.00888 | 4215 ft | 274 kts | 128° |
| 2026-05-04 18:05 | 13.20321 | 75.02547 | 3954 ft | 266 kts | 116° |
| 2026-05-04 18:05 | 13.19559 | 75.04213 | 3923 ft | 249 kts | 114° |
| 2026-05-04 18:06 | 13.18211 | 75.07287 | 4035 ft | 228 kts | 114° |
| 2026-05-04 18:06 | 13.17423 | 75.08674 | 4028 ft | 223 kts | 127° |
| 2026-05-04 18:06 | 13.16475 | 75.09912 | 4019 ft | 223 kts | 129° |
| 2026-05-04 18:07 | 13.15434 | 75.11092 | 4015 ft | 223 kts | 135° |
| 2026-05-04 18:07 | 13.14287 | 75.12160 | 4022 ft | 222 kts | 143° |
| 2026-05-04 18:07 | 13.13017 | 75.13056 | 4019 ft | 222 kts | 149° |
| 2026-05-04 18:07 | 13.11669 | 75.13839 | 4022 ft | 217 kts | 153° |
| 2026-05-04 18:08 | 13.10305 | 75.14218 | 4028 ft | 199 kts | 184° |
| 2026-05-04 18:08 | 13.09060 | 75.13724 | 4018 ft | 193 kts | 223° |
| 2026-05-04 18:08 | 13.08372 | 75.12571 | 4023 ft | 190 kts | 254° |
| 2026-05-04 18:08 | 13.08166 | 75.11701 | 4017 ft | 191 kts | 260° |
| 2026-05-04 18:09 | 13.07758 | 75.09177 | 4016 ft | 164 kts | 251° |
| 2026-05-04 18:09 | 13.06580 | 75.06943 | 4019 ft | 142 kts | 240° |
| 2026-05-04 18:10 | 13.06073 | 75.06116 | 3937 ft | 134 kts | 239° |
| 2026-05-04 18:10 | 13.05735 | 75.05573 | 3831 ft | 133 kts | 239° |
| 2026-05-04 18:10 | 13.05245 | 75.04769 | 3642 ft | 133 kts | 240° |
| 2026-05-04 18:10 | 13.04764 | 75.03974 | 3455 ft | 132 kts | 240° |
| 2026-05-04 18:11 | 13.04277 | 75.03171 | 3284 ft | 132 kts | 240° |
| 2026-05-04 18:11 | 13.03786 | 75.02361 | 3108 ft | 132 kts | 240° |
| 2026-05-04 18:11 | 13.03309 | 75.01576 | 2945 ft | 131 kts | 241° |
| 2026-05-04 18:11 | 13.02824 | 75.00778 | 2771 ft | 131 kts | 240° |
| 2026-05-04 18:12 | 13.02350 | 74.99998 | 2606 ft | 131 kts | 241° |
| 2026-05-04 18:12 | 13.01862 | 74.99193 | 2441 ft | 131 kts | 241° |
| 2026-05-04 18:12 | 13.01381 | 74.98402 | 2273 ft | 130 kts | 242° |
| 2026-05-04 18:12 | 13.00901 | 74.97613 | 2105 ft | 130 kts | 241° |
| 2026-05-04 18:13 | 13.00425 | 74.96829 | 1940 ft | 130 kts | 241° |
| 2026-05-04 18:13 | 12.99947 | 74.96042 | 1771 ft | 130 kts | 241° |
| 2026-05-04 18:13 | 12.98997 | 74.94479 | 1440 ft | 129 kts | 241° |
| 2026-05-04 18:14 | 12.98531 | 74.93712 | 1277 ft | 128 kts | 241° |
| 2026-05-04 18:14 | 12.98082 | 74.92922 | 1127 ft | 128 kts | 243° |
| 2026-05-04 18:14 | 12.97633 | 74.92132 | 1021 ft | 128 kts | 241° |
| 2026-05-04 18:15 | 12.96638 | 74.90615 | 771 ft | 129 kts | 236° |
| 2026-05-04 18:15 | 12.95720 | 74.89093 | 321 ft | 110 kts | 239° |
| 2026-05-04 18:15 | 12.95410 | 74.88584 | 320 ft | 58 kts | 237° |
| 2026-05-04 18:16 | 12.95220 | 74.88268 | 322 ft | 53 kts | 239° |
| 2026-05-04 18:16 | 12.95100 | 74.88070 | 321 ft | 26 kts | 238° |
| 2026-05-04 18:16 | 12.94999 | 74.87902 | 320 ft | 31 kts | 238° |
| 2026-05-04 18:17 | 12.94891 | 74.87656 | 318 ft | 7 kts | 315° |
| 2026-05-04 18:17 | 12.94926 | 74.87631 | 320 ft | 6 kts | 328° |
| 2026-05-04 18:17 | 12.95006 | 74.87581 | 321 ft | 11 kts | 328° |
| 2026-05-04 18:18 | 12.95012 | 74.87511 | 321 ft | 14 kts | 241° |
| 2026-05-04 18:18 | 12.94951 | 74.87412 | 321 ft | 16 kts | 238° |
| 2026-05-04 18:18 | 12.94914 | 74.87352 | 321 ft | 10 kts | 238° |
| 2026-05-04 18:18 | 12.94876 | 74.87290 | 321 ft | 11 kts | 238° |
| 2026-05-04 18:19 | 12.94884 | 74.87170 | 321 ft | 6 kts | 341° |
| 2026-05-04 18:19 | 12.94920 | 74.87175 | 321 ft | 0 kts | 12° |
| 2026-05-04 18:20 | 12.94933 | 74.87187 | 319 ft | 3 kts | 44° |
| 2026-05-04 18:20 | 12.94944 | 74.87193 | 320 ft | 0 kts | 14° |